createdAt,value
2023-02-14T00:16:10.009Z,8.00
2023-02-14T00:36:12.033Z,7.90
2023-02-14T00:56:14.147Z,9.50
2023-02-14T01:16:17.989Z,9.00
2023-02-14T01:36:21.048Z,8.10
2023-02-14T01:56:27.628Z,9.30
2023-02-14T02:16:32.023Z,9.20
2023-02-14T02:36:48.873Z,8.80
2023-02-14T02:56:52.633Z,11.00
2023-02-14T03:17:14.767Z,9.60
2023-02-14T03:37:23.320Z,10.10
2023-02-14T03:57:34.975Z,11.30
2023-02-14T04:17:36.454Z,11.80
2023-02-14T04:37:38.325Z,13.10
2023-02-14T04:57:39.806Z,11.30
2023-02-14T05:17:41.313Z,11.30
2023-02-14T05:37:42.794Z,12.60
2023-02-14T05:57:44.255Z,13.50
2023-02-14T06:17:46.085Z,12.50
2023-02-14T06:37:47.590Z,10.90
2023-02-14T06:57:49.068Z,11.30
2023-02-14T07:17:50.626Z,14.30
2023-02-14T07:37:52.338Z,11.30
2023-02-14T07:57:53.797Z,13.50
2023-02-14T08:17:58.511Z,12.90
2023-02-14T08:37:59.994Z,12.80
2023-02-14T08:58:01.834Z,13.50
2023-02-14T09:18:03.434Z,14.30
2023-02-14T09:38:05.189Z,18.40
2023-02-14T09:58:15.149Z,15.10
2023-02-14T10:18:19.523Z,12.70
2023-02-14T10:38:27.162Z,14.40
2023-02-14T10:58:33.358Z,14.70
2023-02-14T11:18:35.771Z,14.20
2023-02-14T11:38:38.383Z,14.80
2023-02-14T11:58:49.829Z,15.20
2023-02-14T12:18:54.065Z,15.50
2023-02-14T12:39:05.293Z,14.50
2023-02-14T12:59:18.519Z,15.10
2023-02-14T13:19:29.918Z,15.90
2023-02-14T13:39:38.740Z,13.40
2023-02-14T13:59:41.242Z,13.20
2023-02-14T14:19:42.778Z,12.60
2023-02-14T14:39:49.836Z,13.20
2023-02-14T15:00:03.388Z,13.80
2023-02-14T15:20:07.830Z,13.10
2023-02-14T15:40:16.595Z,13.90
2023-02-14T16:00:19.689Z,17.50
2023-02-14T16:20:24.193Z,14.90
2023-02-14T16:40:26.898Z,16.70
2023-02-14T17:00:28.383Z,15.80
2023-02-14T17:20:30.128Z,17.80
2023-02-14T17:40:31.740Z,19.50
2023-02-14T18:00:33.271Z,20.00
2023-02-14T18:20:34.887Z,18.10
2023-02-14T18:40:36.412Z,16.60
2023-02-14T19:00:37.898Z,19.60
2023-02-14T19:20:39.894Z,18.60
2023-02-14T19:40:43.632Z,20.70
2023-02-14T20:00:45.465Z,20.20
2023-02-14T20:20:47.497Z,20.10
2023-02-14T20:40:48.957Z,22.00
2023-02-14T21:00:50.443Z,20.60
2023-02-14T21:20:51.896Z,20.90
2023-02-14T21:40:59.676Z,22.60
2023-02-14T22:01:01.677Z,22.70
2023-02-14T22:21:07.948Z,25.00
2023-02-14T22:41:12.382Z,25.50
2023-02-14T23:01:17.900Z,21.90
2023-02-14T23:21:19.387Z,23.00
2023-02-14T23:41:29.693Z,24.30
